地図

経路データ

SID SEASON NUMBER BASIN SUBBASIN NAME ISO_TIME NATURE LAT LON WMO_WIND WMO_PRES WMO_AGENCY TRACK_TYPE DIST2LAND LANDFALL IFLAG USA_AGENCY USA_ATCF_ID USA_LAT USA_LON USA_RECORD USA_STATUS USA_WIND USA_PRES USA_SSHS USA_R34_NE USA_R34_SE USA_R34_SW USA_R34_NW USA_R50_NE USA_R50_SE USA_R50_SW USA_R50_NW USA_R64_NE USA_R64_SE USA_R64_SW USA_R64_NW USA_POCI USA_ROCI USA_RMW USA_EYE TOKYO_LAT TOKYO_LON TOKYO_GRADE TOKYO_WIND TOKYO_PRES TOKYO_R50_DIR TOKYO_R50_LONG TOKYO_R50_SHORT TOKYO_R30_DIR TOKYO_R30_LONG TOKYO_R30_SHORT TOKYO_LAND CMA_LAT CMA_LON CMA_CAT CMA_WIND CMA_PRES HKO_LAT HKO_LON HKO_CAT HKO_WIND HKO_PRES NEWDELHI_LAT NEWDELHI_LON NEWDELHI_GRADE NEWDELHI_WIND NEWDELHI_PRES NEWDELHI_CI NEWDELHI_DP NEWDELHI_POCI REUNION_LAT REUNION_LON REUNION_TYPE REUNION_WIND REUNION_PRES REUNION_TNUM REUNION_CI REUNION_RMW REUNION_R34_NE REUNION_R34_SE REUNION_R34_SW REUNION_R34_NW REUNION_R50_NE REUNION_R50_SE REUNION_R50_SW REUNION_R50_NW REUNION_R64_NE REUNION_R64_SE REUNION_R64_SW REUNION_R64_NW BOM_LAT BOM_LON BOM_TYPE BOM_WIND BOM_PRES BOM_TNUM BOM_CI BOM_RMW BOM_R34_NE BOM_R34_SE BOM_R34_SW BOM_R34_NW BOM_R50_NE BOM_R50_SE BOM_R50_SW BOM_R50_NW BOM_R64_NE BOM_R64_SE BOM_R64_SW BOM_R64_NW BOM_ROCI BOM_POCI BOM_EYE BOM_POS_METHOD BOM_PRES_METHOD NADI_LAT NADI_LON NADI_CAT NADI_WIND NADI_PRES WELLINGTON_LAT WELLINGTON_LON WELLINGTON_WIND WELLINGTON_PRES DS824_LAT DS824_LON DS824_STAGE DS824_WIND DS824_PRES TD9636_LAT TD9636_LON TD9636_STAGE TD9636_WIND TD9636_PRES TD9635_LAT TD9635_LON TD9635_WIND TD9635_PRES TD9635_ROCI NEUMANN_LAT NEUMANN_LON NEUMANN_CLASS NEUMANN_WIND NEUMANN_PRES MLC_LAT MLC_LON MLC_CLASS MLC_WIND MLC_PRES USA_GUST BOM_GUST BOM_GUST_PER REUNION_GUST REUNION_GUST_PER USA_SEAHGT USA_SEARAD_NE USA_SEARAD_SE USA_SEARAD_SW USA_SEARAD_NW STORM_SPEED STORM_DIR
1919245N33287 1919 32 NA NA NOT_NAMED 1919-09-02 00:00:00 TS 33.0000 -72.7000 30 hurdat_atl main 393 381 O_____________ hurdat_atl AL031919 33.0000 -72.7000 TD 30 -1 11 29
1919245N33287 1919 32 NA NA NOT_NAMED 1919-09-02 03:00:00 TS 33.5002 -72.3732 main 381 373 P_____________ AL031919 33.5002 -72.3732 TD 32 -1 12 30
1919245N33287 1919 32 NA NA NOT_NAMED 1919-09-02 06:00:00 TS 34.0000 -72.0000 35 hurdat_atl main 376 370 O_____________ hurdat_atl AL031919 34.0000 -72.0000 TS 35 0 12 35
1919245N33287 1919 32 NA NA NOT_NAMED 1919-09-02 09:00:00 TS 34.4997 -71.5444 main 390 386 P_____________ AL031919 34.4997 -71.5444 TS 40 0 13 40
1919245N33287 1919 32 NA NA NOT_NAMED 1919-09-02 12:00:00 TS 35.0000 -71.0000 45 hurdat_atl main 416 416 O_____________ hurdat_atl AL031919 35.0000 -71.0000 TS 45 0 14 44
1919245N33287 1919 32 NA NA NOT_NAMED 1919-09-02 15:00:00 TS 35.5000 -70.3721 main 460 460 P_____________ AL031919 35.5000 -70.3721 TS 50 0 15 47
1919245N33287 1919 32 NA NA NOT_NAMED 1919-09-02 18:00:00 TS 36.0000 -69.7000 55 hurdat_atl main 521 521 O_____________ hurdat_atl AL031919 36.0000 -69.7000 TS 55 0 15 47
1919245N33287 1919 32 NA NA NOT_NAMED 1919-09-02 21:00:00 TS 36.4998 -69.0418 main 570 538 P_____________ AL031919 36.4998 -69.0418 TS 60 0 14 46
1919245N33287 1919 32 NA NA NOT_NAMED 1919-09-03 00:00:00 TS 37.0000 -68.4000 65 hurdat_atl main 538 503 O_____________ hurdat_atl AL031919 37.0000 -68.4000 HU 65 1 14 45
1919245N33287 1919 32 NA NA NOT_NAMED 1919-09-03 03:00:00 TS 37.4996 -67.7916 main 503 475 P_____________ AL031919 37.4996 -67.7916 HU 70 1 14 44
1919245N33287 1919 32 NA NA NOT_NAMED 1919-09-03 06:00:00 TS 38.0000 -67.2000 75 hurdat_atl main 475 456 O_____________ hurdat_atl AL031919 38.0000 -67.2000 HU 75 1 14 44
1919245N33287 1919 32 NA NA NOT_NAMED 1919-09-03 09:00:00 TS 38.4999 -66.5845 main 458 447 P_____________ AL031919 38.4999 -66.5845 HU 80 1 14 43
1919245N33287 1919 32 NA NA NOT_NAMED 1919-09-03 12:00:00 TS 39.0000 -66.0000 85 hurdat_atl main 452 444 O_____________ hurdat_atl AL031919 39.0000 -66.0000 HU 85 2 13 41
1919245N33287 1919 32 NA NA NOT_NAMED 1919-09-03 15:00:00 TS 39.4996 -65.4840 main 444 390 P_____________ AL031919 39.4996 -65.4840 HU 85 2 13 38
1919245N33287 1919 32 NA NA NOT_NAMED 1919-09-03 18:00:00 TS 40.0000 -65.0000 85 hurdat_atl main 390 340 O_____________ hurdat_atl AL031919 40.0000 -65.0000 HU 85 2 13 37
1919245N33287 1919 32 NA NA NOT_NAMED 1919-09-03 21:00:00 TS 40.4998 -64.4993 main 340 297 P_____________ AL031919 40.4998 -64.4993 HU 77 1 13 37
1919245N33287 1919 32 NA NA NOT_NAMED 1919-09-04 00:00:00 TS 41.0000 -64.0000 70 hurdat_atl main 297 266 O_____________ hurdat_atl AL031919 41.0000 -64.0000 HU 70 1 13 37
1919245N33287 1919 32 NA NA NOT_NAMED 1919-09-04 03:00:00 TS 41.4998 -63.4992 main 266 247 P_____________ AL031919 41.4998 -63.4992 HU 62 0 12 37
1919245N33287 1919 32 NA NA NOT_NAMED 1919-09-04 06:00:00 TS 42.0000 -63.0000 55 hurdat_atl main 247 229 O_____________ hurdat_atl AL031919 42.0000 -63.0000 TS 55 0 12 37
1919245N33287 1919 32 NA NA NOT_NAMED 1919-09-04 09:00:00 TS 42.4848 -62.4988 main 229 199 P_____________ AL031919 42.4848 -62.4988 TS 50 0 12 36
1919245N33287 1919 32 NA NA NOT_NAMED 1919-09-04 12:00:00 TS 43.0000 -62.0000 45 hurdat_atl main 199 161 O_____________ hurdat_atl AL031919 43.0000 -62.0000 TS 45 0 13 34
1919245N33287 1919 32 NA NA NOT_NAMED 1919-09-04 15:00:00 TS 43.5773 -61.4992 main 155 110 P_____________ AL031919 43.5773 -61.4992 TS 40 0 14 31
1919245N33287 1919 32 NA NA NOT_NAMED 1919-09-04 18:00:00 TS 44.2000 -61.0000 35 hurdat_atl main 110 59 O_____________ hurdat_atl AL031919 44.2000 -61.0000 TS 35 0 15 29
1919245N33287 1919 32 NA NA NOT_NAMED 1919-09-04 21:00:00 TS 44.8454 -60.5022 main 64 32 P_____________ AL031919 44.8454 -60.5022 TS 32 -1 15 29
1919245N33287 1919 32 NA NA NOT_NAMED 1919-09-05 00:00:00 ET 45.5000 -60.0000 30 hurdat_atl main 32 O_____________ hurdat_atl AL031919 45.5000 -60.0000 EX 30 -4 15 28

IBTrACS Databaseについて

本データベースは、米国NOAAが公開する1842年以降の世界の熱帯低気圧のベストトラックデータアーカイブInternational Best Track Archive for Climate Stewardship (IBTrACS)を、ウェブで閲覧しやすい形式に変換したものです。

最終更新日:2021-10-08